sensor_id;sensor_type;location;lat;lon;timestamp;P1;durP1;ratioP1;P2;durP2;ratioP2
26080;SDS011;13991;51.174;4.438;2023-02-28T00:00:49;10.93;;;4.43;;
26080;SDS011;13991;51.174;4.438;2023-02-28T00:03:15;9.90;;;4.93;;
26080;SDS011;13991;51.174;4.438;2023-02-28T00:05:41;11.07;;;5.13;;
26080;SDS011;13991;51.174;4.438;2023-02-28T00:08:07;17.60;;;5.13;;
26080;SDS011;13991;51.174;4.438;2023-02-28T00:10:33;14.97;;;4.77;;
26080;SDS011;13991;51.174;4.438;2023-02-28T00:13:03;17.47;;;5.30;;
26080;SDS011;13991;51.174;4.438;2023-02-28T00:15:31;11.20;;;4.43;;
26080;SDS011;13991;51.174;4.438;2023-02-28T00:17:57;14.10;;;5.17;;
26080;SDS011;13991;51.174;4.438;2023-02-28T00:20:23;11.30;;;5.70;;
26080;SDS011;13991;51.174;4.438;2023-02-28T00:22:50;13.47;;;4.97;;
26080;SDS011;13991;51.174;4.438;2023-02-28T00:25:18;14.10;;;4.83;;
26080;SDS011;13991;51.174;4.438;2023-02-28T00:27:46;16.03;;;5.70;;
26080;SDS011;13991;51.174;4.438;2023-02-28T00:30:14;11.60;;;5.67;;
26080;SDS011;13991;51.174;4.438;2023-02-28T00:32:44;15.87;;;6.00;;
26080;SDS011;13991;51.174;4.438;2023-02-28T00:35:11;11.90;;;5.23;;
26080;SDS011;13991;51.174;4.438;2023-02-28T00:37:37;24.93;;;5.60;;
26080;SDS011;13991;51.174;4.438;2023-02-28T00:40:03;12.73;;;5.13;;
26080;SDS011;13991;51.174;4.438;2023-02-28T00:42:31;10.20;;;5.67;;
26080;SDS011;13991;51.174;4.438;2023-02-28T00:44:57;20.80;;;4.77;;
26080;SDS011;13991;51.174;4.438;2023-02-28T00:47:22;17.30;;;5.87;;
26080;SDS011;13991;51.174;4.438;2023-02-28T00:49:48;14.43;;;6.07;;
26080;SDS011;13991;51.174;4.438;2023-02-28T00:52:14;12.60;;;5.67;;
26080;SDS011;13991;51.174;4.438;2023-02-28T00:54:39;9.03;;;5.10;;
26080;SDS011;13991;51.174;4.438;2023-02-28T00:57:05;13.63;;;5.80;;
26080;SDS011;13991;51.174;4.438;2023-02-28T00:59:31;16.13;;;6.17;;
26080;SDS011;13991;51.174;4.438;2023-02-28T01:01:56;18.70;;;5.63;;
26080;SDS011;13991;51.174;4.438;2023-02-28T01:04:22;12.10;;;5.60;;
26080;SDS011;13991;51.174;4.438;2023-02-28T01:06:48;20.60;;;6.53;;
26080;SDS011;13991;51.174;4.438;2023-02-28T01:09:13;13.63;;;5.77;;
26080;SDS011;13991;51.174;4.438;2023-02-28T01:11:39;17.33;;;6.13;;
26080;SDS011;13991;51.174;4.438;2023-02-28T01:14:06;14.27;;;6.23;;
26080;SDS011;13991;51.174;4.438;2023-02-28T01:16:33;20.87;;;5.63;;
26080;SDS011;13991;51.174;4.438;2023-02-28T01:18:58;11.63;;;6.23;;
26080;SDS011;13991;51.174;4.438;2023-02-28T01:21:24;25.27;;;7.07;;
26080;SDS011;13991;51.174;4.438;2023-02-28T01:23:50;14.90;;;6.60;;
26080;SDS011;13991;51.174;4.438;2023-02-28T01:28:43;12.97;;;6.17;;
26080;SDS011;13991;51.174;4.438;2023-02-28T01:31:10;17.23;;;5.90;;
26080;SDS011;13991;51.174;4.438;2023-02-28T01:33:36;14.83;;;6.60;;
26080;SDS011;13991;51.174;4.438;2023-02-28T01:36:04;19.13;;;6.27;;
26080;SDS011;13991;51.174;4.438;2023-02-28T01:38:32;15.27;;;6.53;;
26080;SDS011;13991;51.174;4.438;2023-02-28T01:40:58;12.43;;;5.20;;
26080;SDS011;13991;51.174;4.438;2023-02-28T01:43:28;15.83;;;6.93;;
26080;SDS011;13991;51.174;4.438;2023-02-28T01:46:17;15.53;;;5.87;;
26080;SDS011;13991;51.174;4.438;2023-02-28T01:48:47;12.60;;;5.50;;
26080;SDS011;13991;51.174;4.438;2023-02-28T01:51:27;15.93;;;6.37;;
26080;SDS011;13991;51.174;4.438;2023-02-28T01:53:59;16.93;;;5.90;;
26080;SDS011;13991;51.174;4.438;2023-02-28T01:56:29;14.77;;;6.33;;
26080;SDS011;13991;51.174;4.438;2023-02-28T01:58:58;18.43;;;5.87;;
26080;SDS011;13991;51.174;4.438;2023-02-28T02:01:25;11.73;;;6.10;;
26080;SDS011;13991;51.174;4.438;2023-02-28T02:03:56;15.77;;;6.10;;
26080;SDS011;13991;51.174;4.438;2023-02-28T02:06:25;17.20;;;6.40;;
26080;SDS011;13991;51.174;4.438;2023-02-28T02:08:58;13.20;;;6.57;;
26080;SDS011;13991;51.174;4.438;2023-02-28T02:11:24;10.80;;;5.80;;
26080;SDS011;13991;51.174;4.438;2023-02-28T02:27:30;16.97;;;5.70;;
26080;SDS011;13991;51.174;4.438;2023-02-28T02:38:43;19.90;;;5.87;;
26080;SDS011;13991;51.174;4.438;2023-02-28T02:43:54;16.63;;;6.40;;
26080;SDS011;13991;51.174;4.438;2023-02-28T02:46:34;22.33;;;5.60;;
26080;SDS011;13991;51.174;4.438;2023-02-28T02:49:08;12.57;;;5.70;;
26080;SDS011;13991;51.174;4.438;2023-02-28T02:51:37;12.07;;;5.60;;
26080;SDS011;13991;51.174;4.438;2023-02-28T02:54:08;11.37;;;5.10;;
26080;SDS011;13991;51.174;4.438;2023-02-28T02:56:41;15.90;;;6.27;;
26080;SDS011;13991;51.174;4.438;2023-02-28T02:59:11;11.63;;;5.67;;
26080;SDS011;13991;51.174;4.438;2023-02-28T03:01:40;13.37;;;5.97;;
26080;SDS011;13991;51.174;4.438;2023-02-28T03:04:08;14.67;;;6.00;;
26080;SDS011;13991;51.174;4.438;2023-02-28T03:06:41;14.57;;;5.73;;
26080;SDS011;13991;51.174;4.438;2023-02-28T03:09:07;12.63;;;6.03;;
26080;SDS011;13991;51.174;4.438;2023-02-28T03:11:32;12.13;;;5.17;;
26080;SDS011;13991;51.174;4.438;2023-02-28T03:27:18;11.80;;;6.30;;
26080;SDS011;13991;51.174;4.438;2023-02-28T03:30:00;11.80;;;6.17;;
26080;SDS011;13991;51.174;4.438;2023-02-28T03:35:24;14.47;;;5.60;;
26080;SDS011;13991;51.174;4.438;2023-02-28T03:38:00;17.57;;;5.50;;
26080;SDS011;13991;51.174;4.438;2023-02-28T03:40:34;12.83;;;5.57;;
26080;SDS011;13991;51.174;4.438;2023-02-28T03:43:07;17.00;;;5.83;;
26080;SDS011;13991;51.174;4.438;2023-02-28T03:45:37;20.03;;;5.87;;
26080;SDS011;13991;51.174;4.438;2023-02-28T03:48:09;14.77;;;6.13;;
26080;SDS011;13991;51.174;4.438;2023-02-28T03:50:41;21.27;;;6.60;;
26080;SDS011;13991;51.174;4.438;2023-02-28T03:53:29;17.57;;;6.10;;
26080;SDS011;13991;51.174;4.438;2023-02-28T03:56:03;18.33;;;6.43;;
26080;SDS011;13991;51.174;4.438;2023-02-28T03:58:40;8.33;;;4.97;;
26080;SDS011;13991;51.174;4.438;2023-02-28T04:01:14;23.93;;;6.37;;
26080;SDS011;13991;51.174;4.438;2023-02-28T04:03:46;14.80;;;5.93;;
26080;SDS011;13991;51.174;4.438;2023-02-28T04:06:19;12.57;;;5.63;;
26080;SDS011;13991;51.174;4.438;2023-02-28T04:08:47;9.17;;;5.40;;
26080;SDS011;13991;51.174;4.438;2023-02-28T04:14:03;19.77;;;6.47;;
26080;SDS011;13991;51.174;4.438;2023-02-28T04:16:30;14.90;;;5.30;;
26080;SDS011;13991;51.174;4.438;2023-02-28T04:18:57;14.13;;;6.17;;
26080;SDS011;13991;51.174;4.438;2023-02-28T04:21:37;17.87;;;6.17;;
26080;SDS011;13991;51.174;4.438;2023-02-28T04:24:05;10.93;;;5.17;;
26080;SDS011;13991;51.174;4.438;2023-02-28T04:26:34;21.03;;;6.30;;
26080;SDS011;13991;51.174;4.438;2023-02-28T04:29:02;11.40;;;6.30;;
26080;SDS011;13991;51.174;4.438;2023-02-28T04:31:29;13.13;;;6.33;;
26080;SDS011;13991;51.174;4.438;2023-02-28T04:33:55;12.17;;;6.13;;
26080;SDS011;13991;51.174;4.438;2023-02-28T04:36:21;18.77;;;5.90;;
26080;SDS011;13991;51.174;4.438;2023-02-28T04:38:48;14.87;;;5.53;;
26080;SDS011;13991;51.174;4.438;2023-02-28T04:41:14;11.07;;;5.63;;
26080;SDS011;13991;51.174;4.438;2023-02-28T04:43:40;13.37;;;6.37;;
26080;SDS011;13991;51.174;4.438;2023-02-28T04:46:06;14.93;;;6.27;;
26080;SDS011;13991;51.174;4.438;2023-02-28T04:48:34;14.33;;;5.73;;
26080;SDS011;13991;51.174;4.438;2023-02-28T04:51:04;13.90;;;5.07;;
26080;SDS011;13991;51.174;4.438;2023-02-28T04:53:36;15.20;;;4.73;;
26080;SDS011;13991;51.174;4.438;2023-02-28T04:56:02;19.00;;;6.40;;
26080;SDS011;13991;51.174;4.438;2023-02-28T04:58:28;17.73;;;5.60;;
26080;SDS011;13991;51.174;4.438;2023-02-28T05:00:57;24.00;;;6.10;;
26080;SDS011;13991;51.174;4.438;2023-02-28T05:03:40;15.17;;;5.13;;
26080;SDS011;13991;51.174;4.438;2023-02-28T05:06:07;10.80;;;5.43;;
26080;SDS011;13991;51.174;4.438;2023-02-28T05:08:33;16.47;;;5.07;;
26080;SDS011;13991;51.174;4.438;2023-02-28T05:10:59;12.07;;;5.50;;
26080;SDS011;13991;51.174;4.438;2023-02-28T05:13:26;17.03;;;5.90;;
26080;SDS011;13991;51.174;4.438;2023-02-28T05:15:53;16.27;;;5.60;;
26080;SDS011;13991;51.174;4.438;2023-02-28T05:18:19;9.77;;;5.37;;
26080;SDS011;13991;51.174;4.438;2023-02-28T05:20:44;11.60;;;5.17;;
26080;SDS011;13991;51.174;4.438;2023-02-28T05:23:13;9.77;;;5.00;;
26080;SDS011;13991;51.174;4.438;2023-02-28T05:25:48;11.40;;;5.27;;
26080;SDS011;13991;51.174;4.438;2023-02-28T05:28:13;17.40;;;6.57;;
26080;SDS011;13991;51.174;4.438;2023-02-28T05:30:39;17.13;;;6.20;;
26080;SDS011;13991;51.174;4.438;2023-02-28T05:33:05;16.00;;;5.37;;
26080;SDS011;13991;51.174;4.438;2023-02-28T05:35:30;9.30;;;4.93;;
26080;SDS011;13991;51.174;4.438;2023-02-28T05:37:56;11.37;;;5.53;;
26080;SDS011;13991;51.174;4.438;2023-02-28T05:40:22;9.80;;;4.77;;
26080;SDS011;13991;51.174;4.438;2023-02-28T05:42:49;12.13;;;6.30;;
26080;SDS011;13991;51.174;4.438;2023-02-28T05:45:15;13.97;;;4.57;;
26080;SDS011;13991;51.174;4.438;2023-02-28T05:47:42;13.93;;;5.20;;
26080;SDS011;13991;51.174;4.438;2023-02-28T05:50:08;16.53;;;5.87;;
26080;SDS011;13991;51.174;4.438;2023-02-28T05:52:35;13.43;;;5.17;;
26080;SDS011;13991;51.174;4.438;2023-02-28T05:55:01;11.67;;;5.13;;
26080;SDS011;13991;51.174;4.438;2023-02-28T05:57:27;18.30;;;5.80;;
26080;SDS011;13991;51.174;4.438;2023-02-28T05:59:53;16.83;;;5.90;;
26080;SDS011;13991;51.174;4.438;2023-02-28T06:02:19;20.13;;;5.90;;
26080;SDS011;13991;51.174;4.438;2023-02-28T06:04:45;12.80;;;5.90;;
26080;SDS011;13991;51.174;4.438;2023-02-28T06:07:11;21.63;;;5.50;;
26080;SDS011;13991;51.174;4.438;2023-02-28T06:09:37;12.57;;;6.10;;
26080;SDS011;13991;51.174;4.438;2023-02-28T06:12:04;16.13;;;5.10;;
26080;SDS011;13991;51.174;4.438;2023-02-28T06:14:32;10.53;;;4.87;;
26080;SDS011;13991;51.174;4.438;2023-02-28T06:16:59;13.33;;;4.70;;
26080;SDS011;13991;51.174;4.438;2023-02-28T06:19:25;14.30;;;4.93;;
26080;SDS011;13991;51.174;4.438;2023-02-28T06:21:52;14.53;;;5.33;;
26080;SDS011;13991;51.174;4.438;2023-02-28T06:24:22;17.57;;;4.63;;
26080;SDS011;13991;51.174;4.438;2023-02-28T06:26:48;16.53;;;6.30;;
26080;SDS011;13991;51.174;4.438;2023-02-28T06:29:14;14.80;;;5.97;;
26080;SDS011;13991;51.174;4.438;2023-02-28T06:31:46;10.77;;;4.47;;
26080;SDS011;13991;51.174;4.438;2023-02-28T06:34:12;12.40;;;5.07;;
26080;SDS011;13991;51.174;4.438;2023-02-28T06:36:39;12.47;;;5.27;;
26080;SDS011;13991;51.174;4.438;2023-02-28T06:39:06;19.43;;;5.27;;
26080;SDS011;13991;51.174;4.438;2023-02-28T06:41:32;16.97;;;5.23;;
26080;SDS011;13991;51.174;4.438;2023-02-28T06:44:03;11.73;;;5.47;;
26080;SDS011;13991;51.174;4.438;2023-02-28T06:46:43;12.50;;;4.47;;
26080;SDS011;13991;51.174;4.438;2023-02-28T06:49:09;20.67;;;5.53;;
26080;SDS011;13991;51.174;4.438;2023-02-28T06:51:36;14.77;;;5.47;;
26080;SDS011;13991;51.174;4.438;2023-02-28T06:54:04;12.83;;;5.53;;
26080;SDS011;13991;51.174;4.438;2023-02-28T06:56:34;10.97;;;4.60;;
26080;SDS011;13991;51.174;4.438;2023-02-28T06:59:00;12.33;;;5.43;;
26080;SDS011;13991;51.174;4.438;2023-02-28T07:01:25;10.37;;;5.30;;
26080;SDS011;13991;51.174;4.438;2023-02-28T07:03:52;10.93;;;5.03;;
26080;SDS011;13991;51.174;4.438;2023-02-28T07:06:19;10.27;;;5.43;;
26080;SDS011;13991;51.174;4.438;2023-02-28T07:08:47;14.03;;;6.10;;
26080;SDS011;13991;51.174;4.438;2023-02-28T07:11:14;15.87;;;6.00;;
26080;SDS011;13991;51.174;4.438;2023-02-28T07:13:39;16.30;;;6.33;;
26080;SDS011;13991;51.174;4.438;2023-02-28T07:16:06;20.73;;;6.23;;
26080;SDS011;13991;51.174;4.438;2023-02-28T07:18:35;13.37;;;5.50;;
26080;SDS011;13991;51.174;4.438;2023-02-28T07:21:04;17.40;;;5.73;;
26080;SDS011;13991;51.174;4.438;2023-02-28T07:23:32;16.40;;;6.40;;
26080;SDS011;13991;51.174;4.438;2023-02-28T07:25:58;13.57;;;5.80;;
26080;SDS011;13991;51.174;4.438;2023-02-28T07:28:24;15.40;;;5.03;;
26080;SDS011;13991;51.174;4.438;2023-02-28T07:30:50;14.83;;;5.47;;
26080;SDS011;13991;51.174;4.438;2023-02-28T07:33:16;17.17;;;5.70;;
26080;SDS011;13991;51.174;4.438;2023-02-28T07:35:43;8.83;;;5.60;;
26080;SDS011;13991;51.174;4.438;2023-02-28T07:38:10;13.07;;;5.03;;
26080;SDS011;13991;51.174;4.438;2023-02-28T07:40:38;16.33;;;4.77;;
26080;SDS011;13991;51.174;4.438;2023-02-28T07:43:04;12.77;;;5.00;;
26080;SDS011;13991;51.174;4.438;2023-02-28T07:45:30;14.20;;;5.30;;
26080;SDS011;13991;51.174;4.438;2023-02-28T07:47:59;11.73;;;5.53;;
26080;SDS011;13991;51.174;4.438;2023-02-28T07:50:25;17.13;;;4.90;;
26080;SDS011;13991;51.174;4.438;2023-02-28T07:52:55;18.23;;;4.23;;
26080;SDS011;13991;51.174;4.438;2023-02-28T07:55:22;19.00;;;5.37;;
26080;SDS011;13991;51.174;4.438;2023-02-28T07:57:48;17.40;;;4.67;;
26080;SDS011;13991;51.174;4.438;2023-02-28T08:00:13;14.53;;;4.93;;
26080;SDS011;13991;51.174;4.438;2023-02-28T08:02:39;12.03;;;4.87;;
26080;SDS011;13991;51.174;4.438;2023-02-28T08:05:05;11.37;;;4.33;;
26080;SDS011;13991;51.174;4.438;2023-02-28T08:07:32;9.93;;;4.60;;
26080;SDS011;13991;51.174;4.438;2023-02-28T08:09:58;10.13;;;4.50;;
26080;SDS011;13991;51.174;4.438;2023-02-28T08:12:25;10.57;;;3.73;;
26080;SDS011;13991;51.174;4.438;2023-02-28T08:14:51;10.20;;;4.07;;
26080;SDS011;13991;51.174;4.438;2023-02-28T08:17:17;15.07;;;3.77;;
26080;SDS011;13991;51.174;4.438;2023-02-28T08:19:44;17.00;;;4.37;;
26080;SDS011;13991;51.174;4.438;2023-02-28T08:22:12;14.97;;;4.10;;
26080;SDS011;13991;51.174;4.438;2023-02-28T08:24:40;21.33;;;3.87;;
26080;SDS011;13991;51.174;4.438;2023-02-28T08:27:07;8.87;;;3.90;;
26080;SDS011;13991;51.174;4.438;2023-02-28T08:29:33;10.03;;;4.40;;
26080;SDS011;13991;51.174;4.438;2023-02-28T08:31:59;17.63;;;4.10;;
26080;SDS011;13991;51.174;4.438;2023-02-28T08:34:26;7.50;;;4.03;;
26080;SDS011;13991;51.174;4.438;2023-02-28T08:36:51;9.20;;;3.97;;
26080;SDS011;13991;51.174;4.438;2023-02-28T08:39:18;13.67;;;3.87;;
26080;SDS011;13991;51.174;4.438;2023-02-28T08:41:45;13.30;;;3.77;;
26080;SDS011;13991;51.174;4.438;2023-02-28T08:44:10;8.63;;;3.53;;
26080;SDS011;13991;51.174;4.438;2023-02-28T08:46:36;9.77;;;3.07;;
26080;SDS011;13991;51.174;4.438;2023-02-28T08:49:02;8.13;;;3.70;;
26080;SDS011;13991;51.174;4.438;2023-02-28T08:51:29;13.10;;;3.40;;
26080;SDS011;13991;51.174;4.438;2023-02-28T08:53:57;7.67;;;3.43;;
26080;SDS011;13991;51.174;4.438;2023-02-28T08:56:25;10.73;;;3.20;;
26080;SDS011;13991;51.174;4.438;2023-02-28T08:58:51;11.20;;;3.00;;
26080;SDS011;13991;51.174;4.438;2023-02-28T09:01:25;9.50;;;2.33;;
26080;SDS011;13991;51.174;4.438;2023-02-28T09:03:52;8.17;;;3.07;;
26080;SDS011;13991;51.174;4.438;2023-02-28T09:06:20;13.97;;;2.63;;
26080;SDS011;13991;51.174;4.438;2023-02-28T09:08:47;7.87;;;2.60;;
26080;SDS011;13991;51.174;4.438;2023-02-28T09:11:13;5.03;;;2.40;;
26080;SDS011;13991;51.174;4.438;2023-02-28T09:13:39;10.83;;;3.37;;
26080;SDS011;13991;51.174;4.438;2023-02-28T09:16:06;5.43;;;2.87;;
26080;SDS011;13991;51.174;4.438;2023-02-28T09:18:35;8.17;;;2.60;;
26080;SDS011;13991;51.174;4.438;2023-02-28T09:21:09;7.40;;;2.60;;
26080;SDS011;13991;51.174;4.438;2023-02-28T09:23:39;10.33;;;2.47;;
26080;SDS011;13991;51.174;4.438;2023-02-28T09:26:06;10.70;;;2.50;;
26080;SDS011;13991;51.174;4.438;2023-02-28T09:28:32;4.67;;;2.57;;
26080;SDS011;13991;51.174;4.438;2023-02-28T09:30:58;7.17;;;2.30;;
26080;SDS011;13991;51.174;4.438;2023-02-28T09:33:24;8.80;;;2.93;;
26080;SDS011;13991;51.174;4.438;2023-02-28T09:35:50;6.00;;;2.77;;
26080;SDS011;13991;51.174;4.438;2023-02-28T09:38:22;7.53;;;2.07;;
26080;SDS011;13991;51.174;4.438;2023-02-28T09:40:49;6.80;;;2.80;;
26080;SDS011;13991;51.174;4.438;2023-02-28T09:43:17;5.20;;;2.43;;
26080;SDS011;13991;51.174;4.438;2023-02-28T09:45:52;6.80;;;2.63;;
26080;SDS011;13991;51.174;4.438;2023-02-28T09:48:46;3.00;;;1.57;;
26080;SDS011;13991;51.174;4.438;2023-02-28T09:54:03;14.23;;;1.77;;
26080;SDS011;13991;51.174;4.438;2023-02-28T09:56:39;3.43;;;1.33;;
26080;SDS011;13991;51.174;4.438;2023-02-28T10:04:48;5.47;;;1.73;;
26080;SDS011;13991;51.174;4.438;2023-02-28T10:11:14;5.17;;;1.27;;
26080;SDS011;13991;51.174;4.438;2023-02-28T10:17:09;5.17;;;1.10;;
26080;SDS011;13991;51.174;4.438;2023-02-28T10:25:26;4.00;;;1.03;;
26080;SDS011;13991;51.174;4.438;2023-02-28T10:27:57;4.53;;;1.20;;
26080;SDS011;13991;51.174;4.438;2023-02-28T10:30:26;3.23;;;1.50;;
26080;SDS011;13991;51.174;4.438;2023-02-28T10:32:52;2.20;;;1.40;;
26080;SDS011;13991;51.174;4.438;2023-02-28T10:35:20;4.37;;;1.53;;
26080;SDS011;13991;51.174;4.438;2023-02-28T10:37:49;2.47;;;1.27;;
26080;SDS011;13991;51.174;4.438;2023-02-28T10:42:59;2.37;;;1.00;;
26080;SDS011;13991;51.174;4.438;2023-02-28T10:52:32;4.77;;;0.90;;
26080;SDS011;13991;51.174;4.438;2023-02-28T10:55:25;4.57;;;1.27;;
26080;SDS011;13991;51.174;4.438;2023-02-28T10:57:51;5.87;;;1.23;;
26080;SDS011;13991;51.174;4.438;2023-02-28T11:00:31;3.67;;;1.40;;
26080;SDS011;13991;51.174;4.438;2023-02-28T11:03:40;1.23;;;0.90;;
26080;SDS011;13991;51.174;4.438;2023-02-28T11:06:07;5.10;;;1.10;;
26080;SDS011;13991;51.174;4.438;2023-02-28T11:09:34;3.20;;;1.17;;
26080;SDS011;13991;51.174;4.438;2023-02-28T11:11:43;3.17;;;1.00;;
26080;SDS011;13991;51.174;4.438;2023-02-28T11:17:19;6.07;;;1.30;;
26080;SDS011;13991;51.174;4.438;2023-02-28T11:19:49;2.83;;;1.40;;
26080;SDS011;13991;51.174;4.438;2023-02-28T11:22:24;6.30;;;1.00;;
26080;SDS011;13991;51.174;4.438;2023-02-28T11:24:56;1.53;;;1.00;;
26080;SDS011;13991;51.174;4.438;2023-02-28T11:29:56;1.87;;;1.30;;
26080;SDS011;13991;51.174;4.438;2023-02-28T11:35:28;7.50;;;1.13;;
26080;SDS011;13991;51.174;4.438;2023-02-28T11:38:33;2.70;;;1.30;;
26080;SDS011;13991;51.174;4.438;2023-02-28T11:41:06;7.33;;;1.20;;
26080;SDS011;13991;51.174;4.438;2023-02-28T12:00:25;2.40;;;1.20;;
26080;SDS011;13991;51.174;4.438;2023-02-28T12:03:59;4.47;;;1.50;;
26080;SDS011;13991;51.174;4.438;2023-02-28T12:42:28;3.03;;;1.30;;
26080;SDS011;13991;51.174;4.438;2023-02-28T12:54:46;6.63;;;1.47;;
26080;SDS011;13991;51.174;4.438;2023-02-28T13:13:59;9.77;;;1.53;;
26080;SDS011;13991;51.174;4.438;2023-02-28T13:16:51;2.50;;;1.30;;
26080;SDS011;13991;51.174;4.438;2023-02-28T13:19:28;2.77;;;1.20;;
26080;SDS011;13991;51.174;4.438;2023-02-28T13:21:56;9.90;;;1.80;;
26080;SDS011;13991;51.174;4.438;2023-02-28T13:32:34;4.27;;;1.33;;
26080;SDS011;13991;51.174;4.438;2023-02-28T13:39:58;5.70;;;1.70;;
26080;SDS011;13991;51.174;4.438;2023-02-28T13:42:36;7.67;;;1.40;;
26080;SDS011;13991;51.174;4.438;2023-02-28T13:48:32;1.97;;;1.63;;
26080;SDS011;13991;51.174;4.438;2023-02-28T13:50:57;4.73;;;1.60;;
26080;SDS011;13991;51.174;4.438;2023-02-28T13:53:33;2.50;;;1.70;;
26080;SDS011;13991;51.174;4.438;2023-02-28T13:56:27;6.53;;;1.40;;
26080;SDS011;13991;51.174;4.438;2023-02-28T14:07:51;5.40;;;2.40;;
26080;SDS011;13991;51.174;4.438;2023-02-28T14:10:27;7.50;;;1.70;;
26080;SDS011;13991;51.174;4.438;2023-02-28T14:15:55;7.47;;;1.70;;
26080;SDS011;13991;51.174;4.438;2023-02-28T14:21:09;5.97;;;1.50;;
26080;SDS011;13991;51.174;4.438;2023-02-28T14:23:55;2.97;;;1.43;;
26080;SDS011;13991;51.174;4.438;2023-02-28T14:38:27;4.93;;;1.60;;
26080;SDS011;13991;51.174;4.438;2023-02-28T14:41:02;7.27;;;2.37;;
26080;SDS011;13991;51.174;4.438;2023-02-28T14:43:46;6.87;;;2.33;;
26080;SDS011;13991;51.174;4.438;2023-02-28T14:46:16;7.17;;;2.03;;
26080;SDS011;13991;51.174;4.438;2023-02-28T14:48:44;6.47;;;2.03;;
26080;SDS011;13991;51.174;4.438;2023-02-28T14:51:12;4.60;;;1.90;;
26080;SDS011;13991;51.174;4.438;2023-02-28T14:53:44;9.20;;;1.70;;
26080;SDS011;13991;51.174;4.438;2023-02-28T14:56:22;6.20;;;2.30;;
26080;SDS011;13991;51.174;4.438;2023-02-28T14:58:57;7.93;;;2.33;;
26080;SDS011;13991;51.174;4.438;2023-02-28T15:01:24;3.30;;;1.80;;
26080;SDS011;13991;51.174;4.438;2023-02-28T15:04:04;4.80;;;2.47;;
26080;SDS011;13991;51.174;4.438;2023-02-28T15:06:31;3.77;;;1.80;;
26080;SDS011;13991;51.174;4.438;2023-02-28T15:09:13;8.63;;;2.00;;
26080;SDS011;13991;51.174;4.438;2023-02-28T15:14:30;5.03;;;2.43;;
26080;SDS011;13991;51.174;4.438;2023-02-28T15:17:07;3.63;;;2.00;;
26080;SDS011;13991;51.174;4.438;2023-02-28T15:19:39;7.67;;;2.17;;
26080;SDS011;13991;51.174;4.438;2023-02-28T15:22:08;4.27;;;1.90;;
26080;SDS011;13991;51.174;4.438;2023-02-28T15:24:42;7.80;;;2.00;;
26080;SDS011;13991;51.174;4.438;2023-02-28T15:27:14;5.27;;;2.57;;
26080;SDS011;13991;51.174;4.438;2023-02-28T15:29:49;10.10;;;2.30;;
26080;SDS011;13991;51.174;4.438;2023-02-28T15:34:55;3.13;;;1.80;;
26080;SDS011;13991;51.174;4.438;2023-02-28T15:39:56;6.50;;;2.13;;
26080;SDS011;13991;51.174;4.438;2023-02-28T15:42:30;5.47;;;2.30;;
26080;SDS011;13991;51.174;4.438;2023-02-28T15:44:56;5.63;;;2.10;;
26080;SDS011;13991;51.174;4.438;2023-02-28T15:47:23;4.00;;;2.03;;
26080;SDS011;13991;51.174;4.438;2023-02-28T15:49:52;3.60;;;1.93;;
26080;SDS011;13991;51.174;4.438;2023-02-28T15:52:24;1.97;;;1.40;;
26080;SDS011;13991;51.174;4.438;2023-02-28T15:54:59;3.73;;;1.90;;
26080;SDS011;13991;51.174;4.438;2023-02-28T15:57:53;6.17;;;1.73;;
26080;SDS011;13991;51.174;4.438;2023-02-28T16:00:24;3.83;;;1.57;;
26080;SDS011;13991;51.174;4.438;2023-02-28T16:02:51;4.97;;;2.10;;
26080;SDS011;13991;51.174;4.438;2023-02-28T16:05:27;5.37;;;2.47;;
26080;SDS011;13991;51.174;4.438;2023-02-28T16:08:01;4.93;;;2.50;;
26080;SDS011;13991;51.174;4.438;2023-02-28T16:10:38;8.90;;;2.40;;
26080;SDS011;13991;51.174;4.438;2023-02-28T16:13:04;2.37;;;1.47;;
26080;SDS011;13991;51.174;4.438;2023-02-28T16:15:31;7.60;;;2.10;;
26080;SDS011;13991;51.174;4.438;2023-02-28T16:18:07;14.87;;;2.33;;
26080;SDS011;13991;51.174;4.438;2023-02-28T16:20:35;9.60;;;2.10;;
26080;SDS011;13991;51.174;4.438;2023-02-28T16:23:01;3.73;;;1.90;;
26080;SDS011;13991;51.174;4.438;2023-02-28T16:25:35;4.73;;;1.77;;
26080;SDS011;13991;51.174;4.438;2023-02-28T16:28:02;3.87;;;1.77;;
26080;SDS011;13991;51.174;4.438;2023-02-28T16:30:28;8.17;;;2.50;;
26080;SDS011;13991;51.174;4.438;2023-02-28T16:32:57;4.27;;;2.17;;
26080;SDS011;13991;51.174;4.438;2023-02-28T16:35:23;3.70;;;2.03;;
26080;SDS011;13991;51.174;4.438;2023-02-28T16:37:52;6.80;;;2.20;;
26080;SDS011;13991;51.174;4.438;2023-02-28T16:40:20;7.10;;;2.63;;
26080;SDS011;13991;51.174;4.438;2023-02-28T16:42:51;6.40;;;2.57;;
26080;SDS011;13991;51.174;4.438;2023-02-28T16:45:24;6.30;;;2.43;;
26080;SDS011;13991;51.174;4.438;2023-02-28T16:47:52;4.97;;;2.40;;
26080;SDS011;13991;51.174;4.438;2023-02-28T16:50:25;5.97;;;2.50;;
26080;SDS011;13991;51.174;4.438;2023-02-28T16:52:52;4.87;;;2.40;;
26080;SDS011;13991;51.174;4.438;2023-02-28T16:55:19;7.17;;;2.23;;
26080;SDS011;13991;51.174;4.438;2023-02-28T16:57:47;6.20;;;2.10;;
26080;SDS011;13991;51.174;4.438;2023-02-28T17:00:24;9.07;;;2.20;;
26080;SDS011;13991;51.174;4.438;2023-02-28T17:02:52;7.10;;;2.33;;
26080;SDS011;13991;51.174;4.438;2023-02-28T17:05:18;8.50;;;2.73;;
26080;SDS011;13991;51.174;4.438;2023-02-28T17:07:44;3.90;;;2.37;;
26080;SDS011;13991;51.174;4.438;2023-02-28T17:10:21;5.57;;;2.47;;
26080;SDS011;13991;51.174;4.438;2023-02-28T17:12:49;9.20;;;2.90;;
26080;SDS011;13991;51.174;4.438;2023-02-28T17:15:15;5.70;;;2.70;;
26080;SDS011;13991;51.174;4.438;2023-02-28T17:17:44;11.80;;;3.50;;
26080;SDS011;13991;51.174;4.438;2023-02-28T17:20:15;8.33;;;3.73;;
26080;SDS011;13991;51.174;4.438;2023-02-28T17:22:42;7.93;;;2.47;;
26080;SDS011;13991;51.174;4.438;2023-02-28T17:25:09;10.93;;;2.50;;
26080;SDS011;13991;51.174;4.438;2023-02-28T17:27:36;8.03;;;2.50;;
26080;SDS011;13991;51.174;4.438;2023-02-28T17:30:03;6.83;;;2.70;;
26080;SDS011;13991;51.174;4.438;2023-02-28T17:32:38;10.63;;;2.53;;
26080;SDS011;13991;51.174;4.438;2023-02-28T17:35:04;5.07;;;2.57;;
26080;SDS011;13991;51.174;4.438;2023-02-28T17:37:30;5.63;;;2.43;;
26080;SDS011;13991;51.174;4.438;2023-02-28T17:39:55;8.33;;;3.63;;
26080;SDS011;13991;51.174;4.438;2023-02-28T17:42:21;10.43;;;4.07;;
26080;SDS011;13991;51.174;4.438;2023-02-28T17:44:47;7.83;;;3.93;;
26080;SDS011;13991;51.174;4.438;2023-02-28T17:47:12;10.20;;;4.00;;
26080;SDS011;13991;51.174;4.438;2023-02-28T17:49:38;6.60;;;3.67;;
26080;SDS011;13991;51.174;4.438;2023-02-28T17:52:04;12.90;;;5.00;;
26080;SDS011;13991;51.174;4.438;2023-02-28T17:54:29;17.90;;;6.03;;
26080;SDS011;13991;51.174;4.438;2023-02-28T17:56:55;10.50;;;5.20;;
26080;SDS011;13991;51.174;4.438;2023-02-28T17:59:21;15.17;;;5.27;;
26080;SDS011;13991;51.174;4.438;2023-02-28T18:01:46;18.83;;;5.70;;
26080;SDS011;13991;51.174;4.438;2023-02-28T18:04:12;20.10;;;5.80;;
26080;SDS011;13991;51.174;4.438;2023-02-28T18:06:41;31.47;;;6.57;;
26080;SDS011;13991;51.174;4.438;2023-02-28T18:09:18;13.77;;;4.30;;
26080;SDS011;13991;51.174;4.438;2023-02-28T18:11:49;17.63;;;5.73;;
26080;SDS011;13991;51.174;4.438;2023-02-28T18:14:16;10.53;;;4.70;;
26080;SDS011;13991;51.174;4.438;2023-02-28T18:16:44;14.67;;;3.97;;
26080;SDS011;13991;51.174;4.438;2023-02-28T18:19:11;11.50;;;3.40;;
26080;SDS011;13991;51.174;4.438;2023-02-28T18:21:42;10.83;;;3.43;;
26080;SDS011;13991;51.174;4.438;2023-02-28T18:24:09;9.93;;;4.00;;
26080;SDS011;13991;51.174;4.438;2023-02-28T18:26:35;8.07;;;3.60;;
26080;SDS011;13991;51.174;4.438;2023-02-28T18:29:01;11.77;;;3.90;;
26080;SDS011;13991;51.174;4.438;2023-02-28T18:31:27;12.23;;;4.10;;